Terminal Aerodrome Forecast
Issued by NWS Columbia, SC

Home | Current Version | Previous Version | Text Only | Print | Product List | Glossary On
Versions: 1 2 3 4 5 6 7 8 9 10 11 12 13 14 15 16 17 18 19 20 21 22 23 24 25 26 27 28 29 30
000
FTUS42 KCAE 020500
TAFCAE
TAF
KCAE 020520Z 0206/0306 11006KT P6SM SKC
     FM021000 12005KT P6SM SCT020
     FM021400 13009KT P6SM SCT050
     FM022200 17009KT P6SM VCSH BKN025
     FM030400 17007KT P6SM OVC020=

USA.gov is the U.S. government's official web portal to all federal, state and local government web resources and services.